createdAt,value
2018-07-17T00:01:51.032Z,4.77
2018-07-17T00:04:19.375Z,4.97
2018-07-17T00:06:47.717Z,4.13
2018-07-17T00:09:16.037Z,4.57
2018-07-17T00:11:44.402Z,4.43
2018-07-17T00:14:12.724Z,4.47
2018-07-17T00:16:41.062Z,4.37
2018-07-17T00:19:09.414Z,4.80
2018-07-17T00:21:37.713Z,4.13
2018-07-17T00:24:06.050Z,4.50
2018-07-17T00:26:34.371Z,4.53
2018-07-17T00:29:02.717Z,4.77
2018-07-17T00:31:31.023Z,4.60
2018-07-17T00:33:59.381Z,5.40
2018-07-17T00:36:27.707Z,4.77
2018-07-17T00:38:56.037Z,5.13
2018-07-17T00:41:24.345Z,4.40
2018-07-17T00:43:52.674Z,4.50
2018-07-17T00:46:21.001Z,5.60
2018-07-17T00:48:49.316Z,4.57
2018-07-17T00:51:17.643Z,4.63
2018-07-17T00:53:45.947Z,5.20
2018-07-17T00:56:14.262Z,4.70
2018-07-17T00:58:42.591Z,4.50
2018-07-17T01:01:10.174Z,5.00
2018-07-17T01:03:43.720Z,4.70
2018-07-17T01:06:17.423Z,4.77
2018-07-17T01:08:51.113Z,4.43
2018-07-17T01:11:24.680Z,5.10
2018-07-17T01:13:58.677Z,4.43
2018-07-17T01:16:27.027Z,5.13
2018-07-17T01:18:55.352Z,4.50
2018-07-17T01:21:23.696Z,4.97
2018-07-17T01:23:52.054Z,4.93
2018-07-17T01:26:20.389Z,5.03
2018-07-17T01:28:48.708Z,5.63
2018-07-17T01:31:17.011Z,4.40
2018-07-17T01:33:45.333Z,5.53
2018-07-17T01:36:13.706Z,5.73
2018-07-17T01:38:42.054Z,5.50
2018-07-17T01:41:10.474Z,5.37
2018-07-17T01:43:38.809Z,5.20
2018-07-17T01:46:07.181Z,5.17
2018-07-17T01:48:35.502Z,5.20
2018-07-17T01:51:03.830Z,6.30
2018-07-17T01:53:32.159Z,5.03
2018-07-17T01:56:00.505Z,5.10
2018-07-17T01:58:28.850Z,5.93
2018-07-17T02:00:57.181Z,5.33
2018-07-17T02:03:25.502Z,5.53
2018-07-17T02:05:53.824Z,5.07
2018-07-17T02:08:22.231Z,5.23
2018-07-17T02:10:50.769Z,5.57
2018-07-17T02:13:19.124Z,6.20
2018-07-17T02:15:47.446Z,5.27
2018-07-17T02:18:15.836Z,6.03
2018-07-17T02:20:44.264Z,6.43
2018-07-17T02:23:12.639Z,5.87
2018-07-17T02:25:40.973Z,5.90
2018-07-17T02:28:09.329Z,6.13
2018-07-17T02:30:37.673Z,6.03
2018-07-17T02:33:06.328Z,6.33
2018-07-17T02:35:34.672Z,6.03
2018-07-17T02:38:02.997Z,6.13
2018-07-17T02:40:31.329Z,6.67
2018-07-17T02:42:59.639Z,6.57
2018-07-17T02:45:27.977Z,6.30
2018-07-17T02:47:56.314Z,5.80
2018-07-17T02:50:24.659Z,6.97
2018-07-17T02:52:53.030Z,6.17
2018-07-17T02:55:21.366Z,6.27
2018-07-17T02:57:49.701Z,6.17
2018-07-17T03:00:18.018Z,6.33
2018-07-17T03:02:46.325Z,6.43
2018-07-17T03:05:14.641Z,5.47
2018-07-17T03:07:42.975Z,6.50
2018-07-17T03:10:11.337Z,6.33
2018-07-17T03:12:39.654Z,6.07
2018-07-17T03:15:08.073Z,5.93
2018-07-17T03:17:36.408Z,6.47
2018-07-17T03:20:04.810Z,6.10
2018-07-17T03:22:33.118Z,6.23
2018-07-17T03:25:01.412Z,6.10
2018-07-17T03:27:29.735Z,6.20
2018-07-17T03:29:58.060Z,6.07
2018-07-17T03:32:26.401Z,5.83
2018-07-17T03:34:54.736Z,5.70
2018-07-17T03:37:23.066Z,6.90
2018-07-17T03:39:51.395Z,6.53
2018-07-17T03:42:19.746Z,6.03
2018-07-17T03:44:48.182Z,5.87
2018-07-17T03:47:16.500Z,6.03
2018-07-17T03:49:44.841Z,5.70
2018-07-17T03:52:13.161Z,6.40
2018-07-17T03:54:41.505Z,6.77
2018-07-17T03:57:09.843Z,5.63
2018-07-17T03:59:38.160Z,5.33
2018-07-17T04:02:06.733Z,5.50
2018-07-17T04:04:35.042Z,6.27
2018-07-17T04:07:03.372Z,6.30
2018-07-17T04:09:31.696Z,6.07
2018-07-17T04:12:00.047Z,6.17
2018-07-17T04:14:28.375Z,6.50
2018-07-17T04:16:56.978Z,6.40
2018-07-17T04:19:26.368Z,5.90
2018-07-17T04:21:54.700Z,5.63
2018-07-17T04:24:24.057Z,5.33
2018-07-17T04:26:53.053Z,6.20
2018-07-17T04:29:21.393Z,5.93
2018-07-17T04:31:49.759Z,5.50
2018-07-17T04:34:18.065Z,5.63
2018-07-17T04:36:46.403Z,6.63
2018-07-17T04:39:14.754Z,6.03
2018-07-17T04:41:43.084Z,5.90
2018-07-17T04:44:11.586Z,5.67
2018-07-17T04:46:39.880Z,5.83
2018-07-17T04:49:08.339Z,5.50
2018-07-17T04:51:36.675Z,6.03
2018-07-17T04:54:05.097Z,5.33
2018-07-17T04:56:33.440Z,6.10
2018-07-17T04:59:01.783Z,6.23
2018-07-17T05:01:30.226Z,5.80
2018-07-17T05:03:58.599Z,5.60
2018-07-17T05:06:26.955Z,5.40
2018-07-17T05:08:55.296Z,5.00
2018-07-17T05:11:23.652Z,6.17
2018-07-17T05:13:51.996Z,5.50
2018-07-17T05:16:20.446Z,5.17
2018-07-17T05:18:48.753Z,5.50
2018-07-17T05:21:17.114Z,5.50
2018-07-17T05:23:45.444Z,5.13
2018-07-17T05:26:13.789Z,5.40
2018-07-17T05:28:42.104Z,5.33
2018-07-17T05:31:10.499Z,5.20
2018-07-17T05:33:38.824Z,5.40
2018-07-17T05:36:07.500Z,5.40
2018-07-17T05:38:35.857Z,5.60
2018-07-17T05:41:04.214Z,6.10
2018-07-17T05:43:32.571Z,5.23
2018-07-17T05:46:00.950Z,5.40
2018-07-17T05:48:29.265Z,5.73
2018-07-17T05:50:57.612Z,5.70
2018-07-17T05:53:26.012Z,6.00
2018-07-17T05:55:54.344Z,6.00
2018-07-17T05:58:22.669Z,6.20
2018-07-17T06:00:50.993Z,6.07
2018-07-17T06:03:19.418Z,5.30
2018-07-17T06:05:47.723Z,5.57
2018-07-17T06:08:16.061Z,6.23
2018-07-17T06:10:44.372Z,5.70
2018-07-17T06:13:12.759Z,5.57
2018-07-17T06:15:41.136Z,5.90
2018-07-17T06:18:09.477Z,5.47
2018-07-17T06:20:37.804Z,5.23
2018-07-17T06:23:06.215Z,5.50
2018-07-17T06:25:34.531Z,5.87
2018-07-17T06:28:02.857Z,5.43
2018-07-17T06:30:31.187Z,5.27
2018-07-17T06:32:59.524Z,5.60
2018-07-17T06:35:27.865Z,5.77
2018-07-17T06:37:56.200Z,5.47
2018-07-17T06:40:24.546Z,5.90
2018-07-17T06:42:52.898Z,5.60
2018-07-17T06:45:21.248Z,5.63
2018-07-17T06:47:49.597Z,4.50
2018-07-17T06:50:17.970Z,5.57
2018-07-17T06:52:46.316Z,5.37
2018-07-17T06:55:14.646Z,5.07
2018-07-17T06:57:42.974Z,5.17
2018-07-17T07:00:11.313Z,5.30
2018-07-17T07:02:39.643Z,5.20
2018-07-17T07:05:08.038Z,4.93
2018-07-17T07:07:36.363Z,4.77
2018-07-17T07:10:04.696Z,4.50
2018-07-17T07:12:33.020Z,4.67
2018-07-17T07:15:01.344Z,4.28
2018-07-17T07:17:29.690Z,3.90
2018-07-17T07:19:58.032Z,4.33
2018-07-17T07:22:26.382Z,3.95
2018-07-17T07:24:54.720Z,3.87
2018-07-17T07:27:23.053Z,4.03
2018-07-17T07:29:51.371Z,4.05
2018-07-17T07:32:19.724Z,3.70
2018-07-17T07:34:48.069Z,4.35
2018-07-17T07:37:16.418Z,5.92
2018-07-17T07:39:44.784Z,8.13
2018-07-17T07:42:13.107Z,4.08
2018-07-17T07:44:41.445Z,3.90
2018-07-17T07:47:09.789Z,3.87
2018-07-17T07:49:38.100Z,10.18
2018-07-17T07:52:06.577Z,6.50
2018-07-17T07:54:35.238Z,3.50
2018-07-17T07:57:03.556Z,6.65
2018-07-17T07:59:31.892Z,7.53
2018-07-17T08:02:00.273Z,4.03
2018-07-17T08:04:28.606Z,3.60
2018-07-17T08:06:56.914Z,3.80
2018-07-17T08:09:25.243Z,6.50
2018-07-17T08:11:53.653Z,5.28
2018-07-17T08:14:21.992Z,6.28
2018-07-17T08:16:50.327Z,5.15
2018-07-17T08:19:18.659Z,5.33
2018-07-17T08:21:47.012Z,5.10
2018-07-17T08:24:15.395Z,3.65
2018-07-17T08:26:43.693Z,3.10
2018-07-17T08:29:12.017Z,3.08
2018-07-17T08:31:40.335Z,3.10
2018-07-17T08:34:08.727Z,5.72
2018-07-17T08:36:37.065Z,5.95
2018-07-17T08:39:07.504Z,3.90
2018-07-17T08:41:35.839Z,2.90
2018-07-17T08:44:04.211Z,2.33
2018-07-17T08:46:32.582Z,2.45
2018-07-17T08:49:00.926Z,2.17
2018-07-17T08:51:29.305Z,2.35
2018-07-17T08:53:57.639Z,2.25
2018-07-17T08:56:25.978Z,2.30
2018-07-17T08:58:54.557Z,2.17
2018-07-17T09:01:22.908Z,3.75
2018-07-17T09:03:51.263Z,2.12
2018-07-17T09:06:19.581Z,2.55
2018-07-17T09:08:47.929Z,2.65
2018-07-17T09:11:16.295Z,2.60
2018-07-17T09:13:44.637Z,2.60
2018-07-17T09:16:12.960Z,2.35
2018-07-17T09:18:41.324Z,2.47
2018-07-17T09:21:09.970Z,2.33
2018-07-17T09:23:38.322Z,2.33
2018-07-17T09:26:06.743Z,2.27
2018-07-17T09:28:35.184Z,2.27
2018-07-17T09:31:03.795Z,2.47
2018-07-17T09:33:32.736Z,2.37
2018-07-17T09:36:01.403Z,2.65
2018-07-17T09:38:30.284Z,2.40
2018-07-17T09:40:58.614Z,2.30
2018-07-17T09:43:26.924Z,2.70
2018-07-17T09:45:55.296Z,3.05
2018-07-17T09:48:23.635Z,2.83
2018-07-17T09:50:51.960Z,4.10
2018-07-17T09:53:20.357Z,3.58
2018-07-17T09:55:48.696Z,3.47
2018-07-17T09:58:17.101Z,3.37
2018-07-17T10:00:50.813Z,3.62
2018-07-17T10:03:19.128Z,4.50
2018-07-17T10:05:47.512Z,4.72
2018-07-17T10:08:15.825Z,4.72
2018-07-17T10:10:44.182Z,5.30
2018-07-17T10:13:12.847Z,5.12
2018-07-17T10:15:41.202Z,5.65
2018-07-17T10:18:09.557Z,5.53
2018-07-17T10:20:37.877Z,5.65
2018-07-17T10:23:06.199Z,5.60
2018-07-17T10:25:34.525Z,5.78
2018-07-17T10:28:02.863Z,5.53
2018-07-17T10:30:31.186Z,5.60
2018-07-17T10:32:59.510Z,4.60
2018-07-17T10:35:27.855Z,4.33
2018-07-17T10:37:56.185Z,4.30
2018-07-17T10:40:24.541Z,3.70
2018-07-17T10:42:52.873Z,3.35
2018-07-17T10:45:21.214Z,3.10
2018-07-17T10:47:49.548Z,2.65
2018-07-17T10:50:17.866Z,3.35
2018-07-17T10:52:46.188Z,4.90
2018-07-17T10:55:14.517Z,3.00
2018-07-17T10:57:42.877Z,2.70
2018-07-17T11:00:11.226Z,2.52
2018-07-17T11:02:39.566Z,3.10
2018-07-17T11:05:07.933Z,2.70
2018-07-17T11:07:36.354Z,3.25
2018-07-17T11:10:04.768Z,3.42
2018-07-17T11:12:33.102Z,3.60
2018-07-17T11:15:01.463Z,3.70
2018-07-17T11:17:29.785Z,3.58
2018-07-17T11:19:58.110Z,3.20
2018-07-17T11:22:26.487Z,3.30
2018-07-17T11:24:54.853Z,3.35
2018-07-17T11:27:23.191Z,3.80
2018-07-17T11:29:51.535Z,3.52
2018-07-17T11:32:20.207Z,3.92
2018-07-17T11:34:48.629Z,4.15
2018-07-17T11:37:16.959Z,4.10
2018-07-17T11:39:45.277Z,4.03
2018-07-17T11:42:13.693Z,4.07
2018-07-17T11:44:42.860Z,5.73
2018-07-17T11:47:11.223Z,6.37
2018-07-17T11:49:39.578Z,3.20
2018-07-17T11:52:07.927Z,3.73
2018-07-17T11:54:36.346Z,3.87
2018-07-17T11:57:05.113Z,3.90
2018-07-17T11:59:33.515Z,4.00
2018-07-17T12:02:02.090Z,3.50
2018-07-17T12:04:30.441Z,3.97
2018-07-17T12:06:58.785Z,3.90
2018-07-17T12:09:27.137Z,4.03
2018-07-17T12:11:55.496Z,3.90
2018-07-17T12:14:23.852Z,3.77
2018-07-17T12:16:52.195Z,4.10
2018-07-17T12:19:20.543Z,4.13
2018-07-17T12:21:48.892Z,4.20
2018-07-17T12:24:17.262Z,3.80
2018-07-17T12:26:45.584Z,3.80
2018-07-17T12:29:13.905Z,3.47
2018-07-17T12:31:42.225Z,3.90
2018-07-17T12:34:10.580Z,4.63
2018-07-17T12:36:38.992Z,3.73
2018-07-17T12:39:09.219Z,3.80
2018-07-17T12:41:37.560Z,3.53
2018-07-17T12:44:05.908Z,3.80
2018-07-17T12:46:34.248Z,4.13
2018-07-17T12:49:02.568Z,3.67
2018-07-17T12:51:30.900Z,3.80
2018-07-17T12:53:59.254Z,3.67
2018-07-17T12:56:27.604Z,3.90
2018-07-17T12:58:55.959Z,3.87
2018-07-17T13:01:24.287Z,3.93
2018-07-17T13:03:52.592Z,3.60
2018-07-17T13:06:20.977Z,4.47
2018-07-17T13:08:49.318Z,3.73
2018-07-17T13:11:17.669Z,3.80
2018-07-17T13:13:45.987Z,4.03
2018-07-17T13:16:14.327Z,3.97
2018-07-17T13:18:42.656Z,3.60
2018-07-17T13:21:10.990Z,3.53
2018-07-17T13:23:39.352Z,3.80
2018-07-17T13:26:07.839Z,3.60
2018-07-17T13:28:36.170Z,3.93
2018-07-17T13:31:04.598Z,4.43
2018-07-17T13:33:32.936Z,3.87
2018-07-17T13:36:01.284Z,3.87
2018-07-17T13:38:29.621Z,4.17
2018-07-17T13:40:57.963Z,3.80
2018-07-17T13:43:26.294Z,4.00
2018-07-17T13:45:54.632Z,3.60
2018-07-17T13:48:22.949Z,3.80
2018-07-17T13:50:51.274Z,3.83
2018-07-17T13:53:19.635Z,3.60
2018-07-17T13:55:47.965Z,3.67
2018-07-17T13:58:16.346Z,3.97
2018-07-17T14:00:44.670Z,3.60
2018-07-17T14:03:13.017Z,3.60
2018-07-17T14:05:41.352Z,3.70
2018-07-17T14:08:09.737Z,3.50
2018-07-17T14:10:38.088Z,3.17
2018-07-17T14:13:06.856Z,3.83
2018-07-17T14:15:35.308Z,4.47
2018-07-17T14:18:03.702Z,4.13
2018-07-17T14:20:32.031Z,3.83
2018-07-17T14:23:00.357Z,4.30
2018-07-17T14:25:28.721Z,3.57
2018-07-17T14:27:57.048Z,4.00
2018-07-17T14:30:25.393Z,3.87
2018-07-17T14:32:53.846Z,3.47
2018-07-17T14:35:22.196Z,4.17
2018-07-17T14:37:50.792Z,4.00
2018-07-17T14:40:19.126Z,3.53
2018-07-17T14:42:47.764Z,3.83
2018-07-17T14:45:16.109Z,3.30
2018-07-17T14:47:44.471Z,4.43
2018-07-17T14:50:12.875Z,4.13
2018-07-17T14:52:41.208Z,4.10
2018-07-17T14:55:10.877Z,4.13
2018-07-17T14:57:39.540Z,4.70
2018-07-17T15:00:08.979Z,5.27
2018-07-17T15:02:37.287Z,5.37
2018-07-17T15:05:06.637Z,4.63
2018-07-17T15:07:34.968Z,4.63
2018-07-17T15:10:03.320Z,4.17
2018-07-17T15:12:31.630Z,3.97
2018-07-17T15:14:59.965Z,4.50
2018-07-17T15:17:28.543Z,4.50
2018-07-17T15:19:56.900Z,4.43
2018-07-17T15:22:25.255Z,3.97
2018-07-17T15:24:53.608Z,4.50
2018-07-17T15:27:21.934Z,4.60
2018-07-17T15:29:50.281Z,4.70
2018-07-17T15:32:18.614Z,5.47
2018-07-17T15:34:46.919Z,5.57
2018-07-17T15:37:15.313Z,4.67
2018-07-17T15:39:43.712Z,11.00
2018-07-17T15:42:12.091Z,5.60
2018-07-17T15:44:40.445Z,4.57
2018-07-17T15:47:08.841Z,4.30
2018-07-17T15:49:37.174Z,4.70
2018-07-17T15:52:05.588Z,5.17
2018-07-17T15:54:33.932Z,5.17
2018-07-17T15:57:02.299Z,4.90
2018-07-17T15:59:30.641Z,4.93
2018-07-17T16:01:58.967Z,4.80
2018-07-17T16:04:27.328Z,5.53
2018-07-17T16:06:55.708Z,4.77
2018-07-17T16:09:24.036Z,5.20
2018-07-17T16:11:52.409Z,5.27
2018-07-17T16:14:21.191Z,5.57
2018-07-17T16:16:49.444Z,5.47
2018-07-17T16:19:17.794Z,5.43
2018-07-17T16:21:46.135Z,5.00
2018-07-17T16:24:14.516Z,4.93
2018-07-17T16:26:42.897Z,4.93
2018-07-17T16:29:11.276Z,5.80
2018-07-17T16:31:39.656Z,4.70
2018-07-17T16:34:07.995Z,4.77
2018-07-17T16:36:36.433Z,4.80
2018-07-17T16:39:06.641Z,4.60
2018-07-17T16:41:35.018Z,5.50
2018-07-17T16:44:03.358Z,5.57
2018-07-17T16:46:31.704Z,5.50
2018-07-17T16:49:00.085Z,5.27
2018-07-17T16:51:28.482Z,5.23
2018-07-17T16:53:57.435Z,5.03
2018-07-17T16:56:25.960Z,5.03
2018-07-17T16:58:54.299Z,4.83
2018-07-17T17:01:22.957Z,5.80
2018-07-17T17:03:51.307Z,6.17
2018-07-17T17:06:19.668Z,5.60
2018-07-17T17:08:48.026Z,5.37
2018-07-17T17:11:16.485Z,6.03
2018-07-17T17:13:44.824Z,5.70
2018-07-17T17:16:13.178Z,4.93
2018-07-17T17:18:41.521Z,5.37
2018-07-17T17:21:09.878Z,5.20
2018-07-17T17:23:38.228Z,5.23
2018-07-17T17:26:06.658Z,5.10
2018-07-17T17:28:35.032Z,5.47
2018-07-17T17:31:03.377Z,5.27
2018-07-17T17:33:31.706Z,5.17
2018-07-17T17:36:00.078Z,5.40
2018-07-17T17:38:28.417Z,5.03
2018-07-17T17:40:56.766Z,6.37
2018-07-17T17:43:25.124Z,4.83
2018-07-17T17:45:53.485Z,5.43
2018-07-17T17:48:22.444Z,5.27
2018-07-17T17:50:50.791Z,5.27
2018-07-17T17:53:19.132Z,5.13
2018-07-17T17:55:47.483Z,5.20
2018-07-17T17:58:15.794Z,5.57
2018-07-17T18:00:44.127Z,5.27
2018-07-17T18:03:12.462Z,5.40
2018-07-17T18:05:40.791Z,4.77
2018-07-17T18:08:09.102Z,5.37
2018-07-17T18:10:37.448Z,5.00
2018-07-17T18:13:06.111Z,5.00
2018-07-17T18:15:34.445Z,5.47
2018-07-17T18:18:02.991Z,5.53
2018-07-17T18:20:31.340Z,5.70
2018-07-17T18:22:59.675Z,5.70
2018-07-17T18:25:28.019Z,5.33
2018-07-17T18:27:56.374Z,4.80
2018-07-17T18:30:24.721Z,6.13
2018-07-17T18:32:53.065Z,6.50
2018-07-17T18:35:21.393Z,7.50
2018-07-17T18:37:49.830Z,6.20
2018-07-17T18:40:18.204Z,6.30
2018-07-17T18:42:46.549Z,5.70
2018-07-17T18:45:14.863Z,5.27
2018-07-17T18:47:43.239Z,5.87
2018-07-17T18:50:13.237Z,5.53
2018-07-17T18:52:39.988Z,5.77
2018-07-17T18:55:08.322Z,6.20
2018-07-17T18:57:36.654Z,5.83
2018-07-17T19:00:05.648Z,7.57
2018-07-17T19:02:34.015Z,6.63
2018-07-17T19:05:02.362Z,6.03
2018-07-17T19:07:30.714Z,5.80
2018-07-17T19:09:59.058Z,5.70
2018-07-17T19:12:27.517Z,6.37
2018-07-17T19:14:55.781Z,6.20
2018-07-17T19:17:24.161Z,5.90
2018-07-17T19:19:52.505Z,5.90
2018-07-17T19:22:20.894Z,6.03
2018-07-17T19:24:49.240Z,6.30
2018-07-17T19:27:17.609Z,5.80
2018-07-17T19:29:45.953Z,6.13
2018-07-17T19:32:14.284Z,6.10
2018-07-17T19:34:42.640Z,6.87
2018-07-17T19:37:11.006Z,6.30
2018-07-17T19:39:39.337Z,5.87
2018-07-17T19:42:07.701Z,5.70
2018-07-17T19:44:36.052Z,5.80
2018-07-17T19:47:04.361Z,5.83
2018-07-17T19:49:32.733Z,5.73
2018-07-17T19:52:01.100Z,5.67
2018-07-17T19:54:29.769Z,5.97
2018-07-17T19:56:58.123Z,5.27
2018-07-17T19:59:26.465Z,6.80
2018-07-17T20:01:54.833Z,8.57
2018-07-17T20:04:23.201Z,9.37
2018-07-17T20:06:51.533Z,6.33
2018-07-17T20:09:19.916Z,6.00
2018-07-17T20:11:48.283Z,5.90
2018-07-17T20:14:16.629Z,5.70
2018-07-17T20:16:44.977Z,6.10
2018-07-17T20:19:13.304Z,5.77
2018-07-17T20:21:41.633Z,5.23
2018-07-17T20:24:09.990Z,5.57
2018-07-17T20:26:38.446Z,5.47
2018-07-17T20:29:06.785Z,6.97
2018-07-17T20:31:35.165Z,6.40
2018-07-17T20:34:03.535Z,7.17
2018-07-17T20:36:31.903Z,6.20
2018-07-17T20:39:00.252Z,6.80
2018-07-17T20:41:28.591Z,5.80
2018-07-17T20:43:56.939Z,6.07
2018-07-17T20:46:25.313Z,6.70
2018-07-17T20:48:53.648Z,6.57
2018-07-17T20:51:21.996Z,8.47
2018-07-17T20:53:50.355Z,16.30
2018-07-17T20:56:18.682Z,8.37
2018-07-17T20:58:47.055Z,6.90
2018-07-17T21:01:15.387Z,5.93
2018-07-17T21:03:43.729Z,5.50
2018-07-17T21:06:12.074Z,6.40
2018-07-17T21:08:40.404Z,7.10
2018-07-17T21:11:08.743Z,8.23
2018-07-17T21:13:37.081Z,14.70
2018-07-17T21:16:06.018Z,7.50
2018-07-17T21:18:34.399Z,14.17
2018-07-17T21:21:02.731Z,12.60
2018-07-17T21:23:31.070Z,8.50
2018-07-17T21:25:59.386Z,6.77
2018-07-17T21:28:27.728Z,8.70
2018-07-17T21:30:56.076Z,11.60
2018-07-17T21:33:24.426Z,7.43
2018-07-17T21:35:52.815Z,6.47
2018-07-17T21:38:21.139Z,6.27
2018-07-17T21:40:49.469Z,5.80
2018-07-17T21:43:17.813Z,6.33
2018-07-17T21:45:46.164Z,6.27
2018-07-17T21:48:14.492Z,6.83
2018-07-17T21:50:42.836Z,6.97
2018-07-17T21:53:11.159Z,6.20
2018-07-17T21:55:39.488Z,6.20
2018-07-17T21:58:07.813Z,6.60
2018-07-17T22:00:36.183Z,6.63
2018-07-17T22:03:04.536Z,6.53
2018-07-17T22:05:32.905Z,6.17
2018-07-17T22:08:01.231Z,6.37
2018-07-17T22:10:29.572Z,6.07
2018-07-17T22:12:57.889Z,7.03
2018-07-17T22:15:26.251Z,6.80
2018-07-17T22:17:54.652Z,7.60
2018-07-17T22:20:23.013Z,6.53
2018-07-17T22:22:51.352Z,6.23
2018-07-17T22:25:19.673Z,6.93
2018-07-17T22:27:47.996Z,6.47
2018-07-17T22:30:16.435Z,6.73
2018-07-17T22:32:44.780Z,6.73
2018-07-17T22:35:13.107Z,6.63
2018-07-17T22:37:41.436Z,6.90
2018-07-17T22:40:09.845Z,6.83
2018-07-17T22:42:38.160Z,6.03
2018-07-17T22:45:07.039Z,6.97
2018-07-17T22:47:35.376Z,7.17
2018-07-17T22:50:03.751Z,6.80
2018-07-17T22:52:32.096Z,7.07
2018-07-17T22:55:00.453Z,6.90
2018-07-17T22:57:28.810Z,6.70
2018-07-17T22:59:57.155Z,6.50
2018-07-17T23:02:25.486Z,6.63
2018-07-17T23:04:53.812Z,6.20
2018-07-17T23:07:22.156Z,6.43
2018-07-17T23:09:50.466Z,8.77
2018-07-17T23:12:18.812Z,16.07
2018-07-17T23:14:47.147Z,10.60
2018-07-17T23:17:15.466Z,7.73
2018-07-17T23:19:43.786Z,7.07
2018-07-17T23:22:13.127Z,6.80
2018-07-17T23:24:41.529Z,7.43
2018-07-17T23:27:09.868Z,7.23
2018-07-17T23:29:38.188Z,7.60
2018-07-17T23:32:06.524Z,7.67
2018-07-17T23:34:34.826Z,7.70
2018-07-17T23:37:03.164Z,7.60
2018-07-17T23:39:31.497Z,8.00
2018-07-17T23:41:59.839Z,7.97
2018-07-17T23:44:28.170Z,7.80
2018-07-17T23:46:56.497Z,8.33
2018-07-17T23:49:30.204Z,7.47
2018-07-17T23:51:58.568Z,7.57
2018-07-17T23:54:26.960Z,7.47
2018-07-17T23:56:55.357Z,7.83
2018-07-17T23:59:23.681Z,8.00
